Time;durP1;ratioP1;P1;durP2;ratioP2;P2;SDS_P1;SDS_P2;PMS_P1;PMS_P2;Temp;Humidity;BMP_temperature;BMP_pressure;BME280_temperature;BME280_humidity;BME280_pressure;Samples;Min_cycle;Max_cycle;Signal;HPM_P1;HPM_P2
2023/05/08 00:02:23;;;;;;;3.07;2.97;;;14.60;99.90;;;;;;4895788;29;20681;-61
2023/05/08 00:04:51;;;;;;;2.93;2.80;;;14.60;99.90;;;;;;4897817;29;20205;-60
2023/05/08 00:07:18;;;;;;;3.80;3.00;;;14.60;99.90;;;;;;4897568;29;20625;-62
2023/05/08 00:09:45;;;;;;;2.80;2.70;;;14.60;99.90;;;;;;4923455;23;20640;-52
2023/05/08 00:12:12;;;;;;;3.47;3.20;;;14.60;99.90;;;;;;4915142;29;20267;-52
2023/05/08 00:14:40;;;;;;;2.70;2.60;;;14.60;99.90;;;;;;4915985;29;20281;-52
2023/05/08 00:17:07;;;;;;;3.83;2.60;;;14.60;99.90;;;;;;4916680;29;20230;-52
2023/05/08 00:19:33;;;;;;;2.20;2.10;;;14.60;99.90;;;;;;4916394;29;20716;-52
2023/05/08 00:22:02;;;;;;;4.10;3.80;;;14.60;99.90;;;;;;4912284;29;20207;-52
2023/05/08 00:24:29;;;;;;;3.17;2.90;;;14.60;99.90;;;;;;4907085;29;20676;-52
2023/05/08 00:26:56;;;;;;;2.87;2.67;;;14.50;99.90;;;;;;4912069;29;20640;-52
2023/05/08 00:29:23;;;;;;;3.23;3.03;;;14.60;99.90;;;;;;4916423;29;20214;-52
2023/05/08 00:31:50;;;;;;;3.57;3.47;;;14.50;99.90;;;;;;4913913;29;20206;-52
2023/05/08 00:34:17;;;;;;;3.70;3.60;;;14.60;99.90;;;;;;4914141;29;20332;-52
2023/05/08 00:36:44;;;;;;;5.30;4.80;;;14.50;99.90;;;;;;4916275;29;20571;-53
2023/05/08 00:39:12;;;;;;;4.47;4.07;;;14.60;99.90;;;;;;4910540;29;20774;-53
2023/05/08 00:41:39;;;;;;;5.77;5.37;;;14.60;99.90;;;;;;4916223;29;20286;-52
2023/05/08 00:44:06;;;;;;;5.20;4.80;;;14.50;99.90;;;;;;4914653;29;20211;-52
2023/05/08 00:46:33;;;;;;;6.23;5.70;;;14.60;99.90;;;;;;4916060;29;20246;-52
2023/05/08 00:49:00;;;;;;;4.73;4.40;;;14.60;99.90;;;;;;4916079;29;20341;-52
2023/05/08 00:51:28;;;;;;;4.83;4.60;;;14.50;99.90;;;;;;4915928;29;20230;-52
2023/05/08 00:53:55;;;;;;;6.07;5.60;;;14.50;99.90;;;;;;4914106;29;20697;-52
2023/05/08 00:56:24;;;;;;;5.13;4.83;;;14.50;99.90;;;;;;4909955;29;20234;-52
2023/05/08 00:58:52;;;;;;;5.03;4.80;;;14.50;99.90;;;;;;4911052;29;20198;-53
2023/05/08 01:01:19;;;;;;;5.20;4.90;;;14.50;99.90;;;;;;4915731;29;20720;-52
2023/05/08 01:03:46;;;;;;;6.17;5.70;;;14.50;99.90;;;;;;4915615;29;20206;-52
2023/05/08 01:06:13;;;;;;;5.53;4.47;;;14.50;99.90;;;;;;4915773;29;20210;-52
2023/05/08 01:08:40;;;;;;;4.97;4.57;;;14.50;99.90;;;;;;4908687;29;20210;-52
2023/05/08 01:11:13;;;;;;;3.80;3.60;;;14.50;99.90;;;;;;4915027;29;20782;-53
2023/05/08 01:13:52;;;;;;;4.97;4.10;;;14.40;99.90;;;;;;4915617;29;20288;-52
2023/05/08 01:16:29;;;;;;;3.20;3.10;;;14.40;99.90;;;;;;4915636;29;20317;-52
2023/05/08 01:19:03;;;;;;;4.27;3.73;;;14.40;99.90;;;;;;4916067;29;20546;-52
2023/05/08 01:21:38;;;;;;;4.80;4.37;;;14.40;99.90;;;;;;4913004;29;20280;-52
2023/05/08 01:24:39;;;;;;;4.27;4.07;;;14.40;99.90;;;;;;4909920;29;20669;-52
2023/05/08 01:27:40;;;;;;;5.57;5.10;;;14.40;99.90;;;;;;4892043;29;20641;-52
2023/05/08 01:30:55;;;;;;;4.87;4.60;;;14.40;99.90;;;;;;4897520;29;20233;-52
2023/05/08 01:33:30;;;;;;;3.40;3.20;;;14.40;99.90;;;;;;4875204;29;20211;-52
2023/05/08 01:36:10;;;;;;;1.47;1.47;;;14.30;99.90;;;;;;4874715;29;20241;-52
2023/05/08 01:38:46;;;;;;;2.70;1.60;;;14.30;99.90;;;;;;4898021;29;20207;-52
2023/05/08 01:41:18;;;;;;;2.03;0.90;;;14.20;99.90;;;;;;4917257;29;20305;-52
2023/05/08 01:43:52;;;;;;;1.33;1.33;;;14.20;99.90;;;;;;4919121;29;20262;-52
2023/05/08 01:46:23;;;;;;;1.73;1.63;;;14.10;99.90;;;;;;4918589;29;20266;-52
2023/05/08 01:49:00;;;;;;;1.50;1.30;;;14.10;99.90;;;;;;4914296;29;20258;-52
2023/05/08 01:51:30;;;;;;;1.40;1.30;;;14.10;99.90;;;;;;4917866;29;20777;-52
2023/05/08 01:54:02;;;;;;;0.93;0.93;;;14.10;99.90;;;;;;4918744;29;20676;-52
2023/05/08 01:56:30;;;;;;;1.10;1.10;;;14.10;99.90;;;;;;4915201;29;20227;-52
2023/05/08 01:59:01;;;;;;;1.47;1.37;;;14.10;99.90;;;;;;4912846;29;20214;-52
2023/05/08 02:01:29;;;;;;;2.07;1.30;;;14.10;99.90;;;;;;4918871;29;20230;-52
2023/05/08 02:03:59;;;;;;;1.43;1.33;;;14.20;99.90;;;;;;4918740;29;20202;-52
2023/05/08 02:06:28;;;;;;;1.00;1.00;;;14.10;99.90;;;;;;4917867;29;20210;-52
2023/05/08 02:08:57;;;;;;;1.80;1.80;;;14.20;99.90;;;;;;4912596;29;20199;-52
2023/05/08 02:11:25;;;;;;;1.70;1.60;;;14.20;99.90;;;;;;4914104;29;20234;-52
2023/05/08 02:13:53;;;;;;;1.50;1.50;;;14.20;99.90;;;;;;4918772;29;20262;-52
2023/05/08 02:16:21;;;;;;;1.60;1.60;;;14.20;99.90;;;;;;4910960;29;20292;-52
2023/05/08 02:18:52;;;;;;;2.30;2.20;;;14.20;99.90;;;;;;4918663;29;20205;-52
2023/05/08 02:21:22;;;;;;;2.47;2.27;;;14.30;99.90;;;;;;4918901;29;20234;-52
2023/05/08 02:23:50;;;;;;;2.43;2.33;;;14.30;99.90;;;;;;4916259;29;20202;-53
2023/05/08 02:26:18;;;;;;;2.57;2.37;;;14.30;99.90;;;;;;4916711;29;20249;-52
2023/05/08 02:28:46;;;;;;;2.23;2.13;;;14.30;99.90;;;;;;4918712;29;20203;-52
2023/05/08 02:31:14;;;;;;;3.57;3.20;;;14.30;99.90;;;;;;4918356;29;20780;-52
2023/05/08 02:33:43;;;;;;;2.60;2.50;;;14.20;99.90;;;;;;4910061;29;20206;-53
2023/05/08 02:36:13;;;;;;;3.07;2.87;;;14.20;99.90;;;;;;4918472;29;20309;-52
2023/05/08 02:38:47;;;;;;;2.90;2.80;;;14.30;99.90;;;;;;4915744;29;20211;-52
2023/05/08 02:41:15;;;;;;;2.57;2.47;;;14.30;99.90;;;;;;4914719;29;20274;-52
2023/05/08 02:43:42;;;;;;;5.63;3.40;;;14.30;99.90;;;;;;4918191;29;20270;-52
2023/05/08 02:46:13;;;;;;;3.77;3.47;;;14.30;99.90;;;;;;4910654;29;20348;-52
2023/05/08 02:48:48;;;;;;;2.73;2.53;;;14.30;99.90;;;;;;4918286;29;20256;-52
2023/05/08 02:51:21;;;;;;;2.63;2.43;;;14.20;99.90;;;;;;4901881;29;20235;-52
2023/05/08 02:53:54;;;;;;;1.80;1.70;;;14.20;99.90;;;;;;4905329;29;20198;-52
2023/05/08 02:56:32;;;;;;;3.10;3.00;;;14.20;99.90;;;;;;4912360;29;20238;-52
2023/05/08 02:59:07;;;;;;;2.83;2.73;;;14.20;99.90;;;;;;4914079;29;20203;-52
2023/05/08 03:01:45;;;;;;;2.03;1.93;;;14.20;99.90;;;;;;4899251;29;20210;-52
2023/05/08 03:04:19;;;;;;;2.47;2.37;;;14.20;99.90;;;;;;4898833;29;20207;-53
2023/05/08 03:06:49;;;;;;;2.27;2.10;;;14.30;99.90;;;;;;4905892;29;20208;-52
2023/05/08 03:09:21;;;;;;;2.20;2.10;;;14.30;99.90;;;;;;4917723;29;20255;-53
2023/05/08 03:11:53;;;;;;;2.43;2.33;;;14.30;99.90;;;;;;4912434;29;20202;-52
2023/05/08 03:14:25;;;;;;;2.03;1.93;;;14.20;99.90;;;;;;4917473;29;20199;-52
2023/05/08 03:16:56;;;;;;;2.40;2.30;;;14.20;99.90;;;;;;4915007;29;20237;-52
2023/05/08 03:19:27;;;;;;;1.80;1.70;;;14.20;99.90;;;;;;4917694;29;20266;-53
2023/05/08 03:21:55;;;;;;;2.63;2.53;;;14.20;99.90;;;;;;4917952;29;20266;-52
2023/05/08 03:24:25;;;;;;;2.27;2.17;;;14.10;99.90;;;;;;4916419;29;20278;-52
2023/05/08 03:26:52;;;;;;;1.93;1.83;;;14.10;99.90;;;;;;4917349;29;20195;-52
2023/05/08 03:29:21;;;;;;;3.13;1.70;;;14.10;99.90;;;;;;4909788;29;20203;-52
2023/05/08 03:31:51;;;;;;;1.27;1.23;;;14.10;99.90;;;;;;4917609;29;20263;-52
2023/05/08 03:34:19;;;;;;;1.07;1.07;;;14.10;99.90;;;;;;4912198;29;20633;-52
2023/05/08 03:36:46;;;;;;;1.87;1.07;;;14.00;99.90;;;;;;4917236;29;20222;-52
2023/05/08 03:39:13;;;;;;;1.17;1.00;;;14.00;99.90;;;;;;4915917;29;20202;-52
2023/05/08 03:41:42;;;;;;;2.27;1.07;;;14.00;99.90;;;;;;4913575;29;20799;-52
2023/05/08 03:44:10;;;;;;;1.37;1.27;;;14.00;99.90;;;;;;4915792;29;20756;-52
2023/05/08 03:46:37;;;;;;;2.20;1.23;;;14.00;99.90;;;;;;4917113;29;20249;-52
2023/05/08 03:49:06;;;;;;;1.17;1.17;;;14.00;99.90;;;;;;4917384;29;20206;-52
2023/05/08 03:51:36;;;;;;;1.33;1.00;;;14.00;99.90;;;;;;4916993;29;20202;-52
2023/05/08 03:54:03;;;;;;;1.63;0.90;;;14.00;99.90;;;;;;4906765;29;20212;-52
2023/05/08 03:56:29;;;;;;;1.00;1.00;;;14.00;99.90;;;;;;4909275;29;20297;-52
2023/05/08 03:59:09;;;;;;;2.03;0.90;;;14.00;99.90;;;;;;4917080;29;20257;-52
2023/05/08 04:01:40;;;;;;;0.90;0.90;;;14.00;99.90;;;;;;4916370;29;20259;-52
2023/05/08 04:04:11;;;;;;;2.20;1.20;;;14.00;99.90;;;;;;4916699;29;20230;-52
2023/05/08 04:06:46;;;;;;;1.43;1.33;;;14.00;99.90;;;;;;4912933;29;20199;-52
2023/05/08 04:09:18;;;;;;;1.43;1.33;;;14.00;99.90;;;;;;4920171;29;20197;-52
2023/05/08 04:11:57;;;;;;;1.07;1.07;;;14.00;99.90;;;;;;4916158;29;20644;-52
2023/05/08 04:14:30;;;;;;;1.20;1.10;;;14.10;99.90;;;;;;4910787;29;20288;-52
2023/05/08 04:17:04;;;;;;;1.13;1.07;;;14.00;99.90;;;;;;4925901;29;20252;-52
2023/05/08 04:19:36;;;;;;;2.37;0.90;;;14.00;99.90;;;;;;4918551;29;20237;-52
2023/05/08 04:22:07;;;;;;;1.10;1.00;;;14.00;99.90;;;;;;4921841;29;20202;-52
2023/05/08 04:24:39;;;;;;;0.90;0.90;;;13.90;99.90;;;;;;4917297;29;20264;-52
2023/05/08 04:27:07;;;;;;;1.70;1.60;;;13.80;99.90;;;;;;4933428;29;20198;-52
2023/05/08 04:29:36;;;;;;;1.00;0.90;;;13.80;99.90;;;;;;4923307;29;20229;-52
2023/05/08 04:32:06;;;;;;;0.87;0.83;;;13.90;99.90;;;;;;4915624;29;20673;-52
2023/05/08 04:34:33;;;;;;;0.57;0.57;;;14.00;99.90;;;;;;4916984;29;20210;-52
2023/05/08 04:37:00;;;;;;;1.13;1.07;;;14.00;99.90;;;;;;4924404;29;20280;-52
2023/05/08 04:39:27;;;;;;;0.80;0.80;;;14.10;99.90;;;;;;4932200;29;20285;-52
2023/05/08 04:42:01;;;;;;;1.90;1.17;;;14.10;99.90;;;;;;4912888;29;20213;-52
2023/05/08 04:44:28;;;;;;;0.93;0.93;;;14.00;99.90;;;;;;4933125;29;20339;-52
2023/05/08 04:46:56;;;;;;;0.80;0.80;;;14.00;99.90;;;;;;4924325;29;20233;-52
2023/05/08 04:49:23;;;;;;;1.13;1.13;;;14.00;99.90;;;;;;4918139;29;20661;-52
2023/05/08 04:51:50;;;;;;;1.37;1.20;;;14.00;99.90;;;;;;4915957;29;20269;-52
2023/05/08 04:54:17;;;;;;;1.97;1.87;;;14.00;99.90;;;;;;4915758;29;20747;-52
2023/05/08 04:56:44;;;;;;;3.70;2.57;;;13.90;99.90;;;;;;4913427;29;20257;-52
2023/05/08 04:59:11;;;;;;;2.27;2.17;;;13.90;99.90;;;;;;4897065;29;20282;-52
2023/05/08 05:01:38;;;;;;;2.13;2.03;;;13.90;99.90;;;;;;4904795;29;20207;-52
2023/05/08 05:04:07;;;;;;;3.20;3.00;;;13.80;99.90;;;;;;4911953;29;20252;-52
2023/05/08 05:06:34;;;;;;;3.20;3.10;;;13.80;99.90;;;;;;4916068;29;20313;-52
2023/05/08 05:09:01;;;;;;;3.17;3.00;;;13.70;99.90;;;;;;4915584;29;20206;-52
2023/05/08 05:11:28;;;;;;;2.57;2.37;;;13.70;99.90;;;;;;4915652;29;20235;-52
2023/05/08 05:13:55;;;;;;;2.20;2.10;;;13.70;99.90;;;;;;4911240;29;20215;-52
2023/05/08 05:16:22;;;;;;;1.87;1.87;;;13.70;99.90;;;;;;4914352;29;20565;-52
2023/05/08 05:18:49;;;;;;;1.80;1.70;;;13.70;99.90;;;;;;4914816;29;20514;-52
2023/05/08 05:21:17;;;;;;;1.60;1.60;;;13.80;99.90;;;;;;4926306;29;20280;-52
2023/05/08 05:23:44;;;;;;;1.73;1.63;;;13.90;99.90;;;;;;4934365;29;20205;-64
2023/05/08 05:26:11;;;;;;;2.97;1.33;;;13.90;99.90;;;;;;4934118;29;20272;-66
2023/05/08 05:28:38;;;;;;;2.23;1.00;;;13.80;99.90;;;;;;4934586;29;20261;-64
2023/05/08 05:31:06;;;;;;;1.30;1.30;;;13.80;99.90;;;;;;4923726;29;20231;-63
2023/05/08 05:33:33;;;;;;;1.03;0.90;;;13.80;99.90;;;;;;4915287;29;20206;-63
2023/05/08 05:36:00;;;;;;;0.90;0.90;;;13.80;99.90;;;;;;4915297;29;20308;-65
2023/05/08 05:38:28;;;;;;;2.20;1.00;;;13.90;99.90;;;;;;4914269;29;20223;-65
2023/05/08 05:40:55;;;;;;;0.90;0.90;;;13.90;99.90;;;;;;4914314;29;20584;-63
2023/05/08 05:43:22;;;;;;;1.33;1.33;;;13.90;99.90;;;;;;4927777;29;20202;-52
2023/05/08 05:45:49;;;;;;;0.63;0.63;;;13.90;99.90;;;;;;4923762;29;20576;-52
2023/05/08 05:48:16;;;;;;;1.37;0.87;;;13.80;99.90;;;;;;4913761;29;20203;-52
2023/05/08 05:50:43;;;;;;;1.27;1.10;;;13.80;99.90;;;;;;4923665;29;20213;-52
2023/05/08 05:53:10;;;;;;;1.70;0.83;;;13.70;99.90;;;;;;4914401;29;20235;-52
2023/05/08 05:55:38;;;;;;;0.80;0.80;;;13.70;99.90;;;;;;4914475;29;20203;-52
2023/05/08 05:58:05;;;;;;;0.50;0.50;;;13.80;99.90;;;;;;4922609;29;20269;-52
2023/05/08 06:00:32;;;;;;;2.20;1.07;;;13.80;99.90;;;;;;4932116;29;20277;-52
2023/05/08 06:03:01;;;;;;;0.97;0.97;;;13.80;99.90;;;;;;4931713;29;20719;-52
2023/05/08 06:05:28;;;;;;;2.53;1.10;;;13.80;99.90;;;;;;4916972;29;20226;-60
2023/05/08 06:07:55;;;;;;;1.93;0.60;;;13.80;99.90;;;;;;4918747;29;20565;-63
2023/05/08 06:10:22;;;;;;;1.33;0.80;;;13.80;99.90;;;;;;4914134;29;20233;-63
2023/05/08 06:12:50;;;;;;;1.67;0.73;;;13.80;99.90;;;;;;4914401;29;20271;-63
2023/05/08 06:15:17;;;;;;;0.80;0.80;;;13.90;99.90;;;;;;4914512;29;20286;-64
2023/05/08 06:17:44;;;;;;;0.50;0.50;;;13.90;99.90;;;;;;4914373;29;20278;-61
2023/05/08 06:20:11;;;;;;;0.63;0.63;;;13.90;99.90;;;;;;4914206;29;21121;-62
2023/05/08 06:22:40;;;;;;;1.90;0.70;;;13.80;99.90;;;;;;4910632;29;20206;-60
2023/05/08 06:25:08;;;;;;;0.77;0.77;;;13.80;99.90;;;;;;4916315;29;20206;-63
2023/05/08 06:27:35;;;;;;;1.30;0.40;;;13.80;99.90;;;;;;4920170;29;20210;-62
2023/05/08 06:30:07;;;;;;;1.17;0.47;;;13.90;99.90;;;;;;4917688;29;20230;-62
2023/05/08 06:32:34;;;;;;;0.40;0.40;;;13.90;99.90;;;;;;4935362;29;20198;-63
2023/05/08 06:35:01;;;;;;;1.10;0.77;;;13.80;99.90;;;;;;4926125;29;20210;-63
2023/05/08 06:37:31;;;;;;;2.50;0.63;;;13.90;99.90;;;;;;4915782;29;20219;-63
2023/05/08 06:39:58;;;;;;;0.97;0.60;;;13.90;99.90;;;;;;4930251;23;20556;-64
2023/05/08 06:42:26;;;;;;;0.50;0.47;;;13.80;99.90;;;;;;4934723;29;20206;-60
2023/05/08 06:44:53;;;;;;;1.80;0.40;;;13.80;99.90;;;;;;4934789;29;20387;-60
2023/05/08 06:47:21;;;;;;;0.93;0.60;;;13.80;99.90;;;;;;4925616;29;20303;-59
2023/05/08 06:49:48;;;;;;;0.50;0.50;;;13.90;99.90;;;;;;4917499;29;20246;-60
2023/05/08 06:52:15;;;;;;;0.60;0.40;;;13.90;99.90;;;;;;4930790;29;20214;-59
2023/05/08 06:54:42;;;;;;;0.50;0.50;;;13.90;99.90;;;;;;4931620;29;20214;-58
2023/05/08 06:57:09;;;;;;;1.07;0.40;;;13.90;99.90;;;;;;4933889;29;20627;-59
2023/05/08 06:59:36;;;;;;;2.83;0.70;;;13.80;99.90;;;;;;4936434;29;20672;-59
2023/05/08 07:02:02;;;;;;;0.40;0.40;;;13.80;99.90;;;;;;4936547;29;20213;-59
2023/05/08 07:04:31;;;;;;;1.60;0.40;;;13.90;99.90;;;;;;4935552;29;20268;-58
2023/05/08 07:06:59;;;;;;;1.67;0.33;;;13.90;99.90;;;;;;4936242;29;20208;-59
2023/05/08 07:09:26;;;;;;;0.77;0.77;;;13.90;99.90;;;;;;4930519;29;20208;-59
2023/05/08 07:11:53;;;;;;;0.50;0.50;;;14.00;99.90;;;;;;4932416;29;20281;-59
2023/05/08 07:14:20;;;;;;;2.73;0.50;;;14.00;99.90;;;;;;4927622;29;20206;-59
2023/05/08 07:16:47;;;;;;;1.77;0.63;;;14.10;99.90;;;;;;4936203;29;20699;-59
2023/05/08 07:19:14;;;;;;;1.07;0.70;;;14.10;99.90;;;;;;4936499;29;20221;-58
2023/05/08 07:21:42;;;;;;;0.73;0.73;;;14.10;99.90;;;;;;4926761;29;20273;-58
2023/05/08 07:24:09;;;;;;;4.63;1.30;;;14.10;99.90;;;;;;4935928;29;20249;-58
2023/05/08 07:26:36;;;;;;;0.73;0.73;;;14.20;99.90;;;;;;4936211;29;20214;-59
2023/05/08 07:29:03;;;;;;;0.87;0.87;;;14.20;99.90;;;;;;4936035;29;20281;-59
2023/05/08 07:31:30;;;;;;;0.83;0.80;;;14.30;99.90;;;;;;4920034;29;20281;-58
2023/05/08 07:33:57;;;;;;;0.67;0.67;;;14.30;99.90;;;;;;4937655;29;20237;-58
2023/05/08 07:36:23;;;;;;;0.83;0.83;;;14.40;99.90;;;;;;4928230;29;20240;-59
2023/05/08 07:38:52;;;;;;;1.00;1.00;;;14.30;99.90;;;;;;4935762;29;20258;-58
2023/05/08 07:41:19;;;;;;;1.80;1.10;;;14.40;99.90;;;;;;4935749;29;20230;-58
2023/05/08 07:43:46;;;;;;;3.40;0.97;;;14.40;99.90;;;;;;4935889;29;20206;-59
2023/05/08 07:46:17;;;;;;;1.43;1.33;;;14.50;99.90;;;;;;4935879;29;20245;-59
2023/05/08 07:48:44;;;;;;;1.40;0.97;;;14.50;99.90;;;;;;4918017;29;20260;-59
2023/05/08 07:51:11;;;;;;;1.57;1.47;;;14.60;99.90;;;;;;4920759;29;20272;-59
2023/05/08 07:53:38;;;;;;;2.50;1.13;;;14.60;99.90;;;;;;4935318;29;20225;-59
2023/05/08 07:56:07;;;;;;;1.40;1.40;;;14.70;99.90;;;;;;4935553;29;20212;-59
2023/05/08 07:58:34;;;;;;;1.27;1.20;;;14.70;99.90;;;;;;4935859;29;20233;-59
2023/05/08 08:01:01;;;;;;;2.20;0.97;;;14.70;99.90;;;;;;4935405;29;20720;-59
2023/05/08 08:03:28;;;;;;;1.40;1.30;;;14.80;99.90;;;;;;4916580;29;20233;-59
2023/05/08 08:05:55;;;;;;;1.70;1.27;;;14.80;99.90;;;;;;4927835;29;20199;-58
2023/05/08 08:08:22;;;;;;;1.60;1.50;;;14.80;99.90;;;;;;4927866;29;20205;-58
2023/05/08 08:10:49;;;;;;;1.30;1.30;;;14.80;99.90;;;;;;4935430;29;20221;-58
2023/05/08 08:13:18;;;;;;;1.23;1.20;;;14.90;99.90;;;;;;4934039;29;20201;-59
2023/05/08 08:15:45;;;;;;;1.93;1.83;;;14.90;99.90;;;;;;4932870;29;20293;-59
2023/05/08 08:18:11;;;;;;;1.90;1.80;;;15.00;99.90;;;;;;4934118;29;20995;-59
2023/05/08 08:20:39;;;;;;;2.80;1.87;;;15.00;99.90;;;;;;4933840;29;20225;-59
2023/05/08 08:23:06;;;;;;;2.37;1.33;;;15.00;99.90;;;;;;4933654;29;20194;-58
2023/05/08 08:25:32;;;;;;;1.57;1.47;;;14.80;99.90;;;;;;4932109;29;20549;-59
2023/05/08 08:27:59;;;;;;;1.03;1.03;;;14.80;99.90;;;;;;4933786;29;20190;-58
2023/05/08 08:30:28;;;;;;;3.30;1.60;;;14.80;99.90;;;;;;4933876;29;20232;-60
2023/05/08 08:32:55;;;;;;;1.43;1.33;;;14.90;99.90;;;;;;4929524;29;20210;-59
2023/05/08 08:35:27;;;;;;;1.60;1.50;;;14.90;99.90;;;;;;4933795;29;20198;-59
2023/05/08 08:37:54;;;;;;;2.70;2.50;;;14.90;99.90;;;;;;4930466;29;20266;-59
2023/05/08 08:40:22;;;;;;;2.37;2.27;;;14.90;99.90;;;;;;4932986;29;20786;-59
2023/05/08 08:42:49;;;;;;;1.50;1.50;;;14.90;99.90;;;;;;4929719;29;20268;-59
2023/05/08 08:45:16;;;;;;;1.20;1.20;;;15.00;99.90;;;;;;4933207;29;20575;-59
2023/05/08 08:47:45;;;;;;;2.20;1.73;;;14.90;99.90;;;;;;4933101;29;20336;-58
2023/05/08 08:50:14;;;;;;;0.90;0.90;;;14.90;99.90;;;;;;4933366;29;20218;-59
2023/05/08 08:52:47;;;;;;;0.90;0.90;;;14.80;99.90;;;;;;4933081;29;20216;-59
2023/05/08 08:55:16;;;;;;;1.60;0.87;;;14.90;99.90;;;;;;4930865;29;20197;-59
2023/05/08 08:57:53;;;;;;;1.00;0.90;;;15.00;99.90;;;;;;4933174;29;20261;-59
2023/05/08 09:00:22;;;;;;;1.27;1.27;;;15.10;99.90;;;;;;4934486;29;20237;-59
2023/05/08 09:02:51;;;;;;;1.30;1.20;;;15.20;99.90;;;;;;4933413;29;20289;-59
2023/05/08 09:05:18;;;;;;;1.13;0.93;;;15.10;99.90;;;;;;4930437;29;20205;-59
2023/05/08 09:07:45;;;;;;;1.20;1.10;;;15.00;99.90;;;;;;4933502;29;20202;-59
2023/05/08 09:10:14;;;;;;;0.90;0.90;;;15.00;99.90;;;;;;4934278;29;20214;-59
2023/05/08 09:12:41;;;;;;;0.60;0.60;;;15.00;99.90;;;;;;4929825;29;20212;-59
2023/05/08 09:15:08;;;;;;;0.70;0.70;;;15.00;99.90;;;;;;4930334;29;20208;-60
2023/05/08 09:17:35;;;;;;;0.80;0.80;;;15.10;99.90;;;;;;4932183;29;20257;-59
2023/05/08 09:20:05;;;;;;;0.80;0.80;;;15.30;99.90;;;;;;4931146;29;20221;-60
2023/05/08 09:22:36;;;;;;;0.83;0.80;;;15.30;99.90;;;;;;4931823;29;20258;-60
2023/05/08 09:25:03;;;;;;;1.37;1.17;;;15.40;99.90;;;;;;4932685;29;20205;-59
2023/05/08 09:27:35;;;;;;;1.27;0.93;;;15.50;99.90;;;;;;4931119;29;20331;-59
2023/05/08 09:30:03;;;;;;;1.30;1.20;;;15.50;99.90;;;;;;4929296;29;20252;-60
2023/05/08 09:32:33;;;;;;;0.73;0.73;;;15.50;99.90;;;;;;4932506;29;20738;-60
2023/05/08 09:35:01;;;;;;;2.07;0.73;;;15.60;99.90;;;;;;4929221;29;20197;-59
2023/05/08 09:37:35;;;;;;;0.80;0.80;;;15.50;99.90;;;;;;4932547;29;20235;-60
2023/05/08 09:40:16;;;;;;;1.83;1.73;;;15.60;99.90;;;;;;4932096;29;20300;-59
2023/05/08 09:42:43;;;;;;;2.30;1.50;;;15.50;99.90;;;;;;4932317;29;21483;-59
2023/05/08 09:45:11;;;;;;;1.27;1.27;;;15.40;99.90;;;;;;4929687;29;20285;-59
2023/05/08 09:47:38;;;;;;;1.20;1.07;;;15.40;99.90;;;;;;4932267;29;20261;-59
2023/05/08 09:50:07;;;;;;;0.63;0.63;;;15.50;99.90;;;;;;4932503;29;20220;-59
2023/05/08 09:52:37;;;;;;;0.73;0.73;;;15.50;99.90;;;;;;4928493;29;20198;-58
2023/05/08 09:55:06;;;;;;;0.73;0.70;;;15.60;99.90;;;;;;4932579;29;20249;-59
2023/05/08 09:57:37;;;;;;;0.80;0.80;;;15.60;99.90;;;;;;4932385;29;20249;-59
2023/05/08 10:00:06;;;;;;;0.70;0.70;;;15.60;99.90;;;;;;4931811;29;20728;-59
2023/05/08 10:02:34;;;;;;;0.73;0.60;;;15.60;99.90;;;;;;4935081;29;20261;-59
2023/05/08 10:05:01;;;;;;;0.70;0.70;;;15.70;99.90;;;;;;4936084;29;20202;-59
2023/05/08 10:07:33;;;;;;;0.70;0.70;;;15.80;99.90;;;;;;4936163;29;20702;-59
2023/05/08 10:10:03;;;;;;;0.87;0.87;;;15.70;99.90;;;;;;4936353;29;20847;-59
2023/05/08 10:12:36;;;;;;;0.60;0.60;;;15.70;99.90;;;;;;4935885;29;20910;-59
2023/05/08 10:15:04;;;;;;;0.80;0.80;;;15.80;99.90;;;;;;4934295;29;20210;-59
2023/05/08 10:17:42;;;;;;;0.50;0.50;;;15.80;99.90;;;;;;4934118;29;20198;-59
2023/05/08 10:20:12;;;;;;;1.00;1.00;;;15.90;99.90;;;;;;4933153;29;20700;-58
2023/05/08 10:22:43;;;;;;;1.17;0.70;;;16.00;99.90;;;;;;4935745;29;20252;-58
2023/05/08 10:25:17;;;;;;;0.97;0.90;;;16.00;99.90;;;;;;4935685;29;20198;-59
2023/05/08 10:27:49;;;;;;;0.97;0.67;;;15.90;99.90;;;;;;4936002;29;20265;-59
2023/05/08 10:30:19;;;;;;;0.80;0.80;;;15.90;99.90;;;;;;4935587;29;20856;-59
2023/05/08 10:32:50;;;;;;;1.37;0.87;;;15.80;99.90;;;;;;4933912;29;20257;-59
2023/05/08 10:35:18;;;;;;;1.10;1.10;;;15.80;99.90;;;;;;4935645;29;20694;-59
2023/05/08 10:37:47;;;;;;;1.00;1.00;;;16.00;99.90;;;;;;4930923;29;20218;-59
2023/05/08 10:40:16;;;;;;;1.10;1.00;;;16.10;99.90;;;;;;4930689;29;20222;-59
2023/05/08 10:42:43;;;;;;;0.80;0.70;;;16.10;99.90;;;;;;4932183;29;20198;-59
2023/05/08 10:45:12;;;;;;;0.83;0.83;;;16.20;99.90;;;;;;4938727;29;20643;-59
2023/05/08 10:47:51;;;;;;;1.33;0.87;;;16.30;99.90;;;;;;4932986;29;20210;-59
2023/05/08 10:50:36;;;;;;;0.93;0.93;;;16.50;99.90;;;;;;4934726;29;20213;-60
2023/05/08 10:53:07;;;;;;;0.80;0.80;;;16.70;99.90;;;;;;4932570;29;20265;-59
2023/05/08 10:55:37;;;;;;;0.83;0.83;;;16.80;99.90;;;;;;4932477;29;20202;-59
2023/05/08 10:58:06;;;;;;;4.93;1.20;;;16.80;99.90;;;;;;4935264;29;20668;-59
2023/05/08 11:01:14;;;;;;;1.07;1.07;;;16.70;99.90;;;;;;4934152;29;20338;-59
2023/05/08 11:03:43;;;;;;;1.27;1.27;;;16.70;99.90;;;;;;4934135;29;20777;-59
2023/05/08 11:06:11;;;;;;;1.20;1.20;;;16.70;99.90;;;;;;4934944;29;20202;-59
2023/05/08 11:08:48;;;;;;;2.73;0.90;;;16.70;99.90;;;;;;4930889;29;20257;-59
2023/05/08 11:11:25;;;;;;;3.60;3.50;;;16.50;99.90;;;;;;4930950;29;20222;-59
2023/05/08 11:13:57;;;;;;;1.53;1.43;;;16.60;99.90;;;;;;4934881;29;20623;-60
2023/05/08 11:17:07;;;;;;;1.70;1.70;;;16.70;99.90;;;;;;4935889;29;20293;-59
2023/05/08 11:19:36;;;;;;;0.97;0.80;;;16.90;99.90;;;;;;4919829;29;20229;-59
2023/05/08 11:22:24;;;;;;;0.90;0.90;;;17.00;99.90;;;;;;4929645;29;20202;-59
2023/05/08 11:24:58;;;;;;;1.17;1.17;;;17.10;99.90;;;;;;4929759;29;20202;-60
2023/05/08 11:27:58;;;;;;;1.10;1.00;;;16.90;99.90;;;;;;4934303;29;20293;-59
2023/05/08 11:30:34;;;;;;;0.50;0.50;;;17.10;99.90;;;;;;4920491;29;20225;-59
2023/05/08 11:33:19;;;;;;;0.93;0.93;;;17.20;99.90;;;;;;4935547;29;20229;-59
2023/05/08 11:35:55;;;;;;;1.03;0.70;;;17.30;99.90;;;;;;4932388;29;20579;-59
2023/05/08 11:38:28;;;;;;;0.70;0.70;;;17.40;99.90;;;;;;4928837;29;20209;-59
2023/05/08 11:41:05;;;;;;;1.07;0.57;;;17.60;99.90;;;;;;4927034;29;20249;-59
2023/05/08 11:43:54;;;;;;;1.33;0.83;;;17.80;99.90;;;;;;4924464;29;20233;-59
2023/05/08 11:46:21;;;;;;;1.20;1.10;;;17.90;99.90;;;;;;4933478;29;20241;-59
2023/05/08 11:48:49;;;;;;;0.70;0.70;;;18.20;99.90;;;;;;4934482;29;20202;-59
2023/05/08 11:51:19;;;;;;;0.80;0.80;;;18.50;99.90;;;;;;4934226;29;20218;-60
2023/05/08 11:53:46;;;;;;;0.60;0.60;;;18.80;99.90;;;;;;4935359;29;20209;-58
2023/05/08 11:56:14;;;;;;;0.53;0.53;;;19.30;99.90;;;;;;4935084;29;20217;-59
2023/05/08 11:58:41;;;;;;;0.60;0.60;;;19.70;99.90;;;;;;4933811;29;20280;-59
2023/05/08 12:01:08;;;;;;;0.90;0.63;;;20.10;99.90;;;;;;4934561;29;20222;-59
2023/05/08 12:03:35;;;;;;;0.30;0.30;;;20.40;99.90;;;;;;4928127;29;20276;-59
2023/05/08 12:06:01;;;;;;;0.80;0.30;;;20.50;99.90;;;;;;4930578;29;20209;-59
2023/05/08 12:08:30;;;;;;;0.23;0.23;;;20.60;99.90;;;;;;4935060;29;20202;-59
2023/05/08 12:10:58;;;;;;;2.33;0.20;;;20.50;99.90;;;;;;4935078;29;20277;-59
2023/05/08 12:13:26;;;;;;;0.40;0.40;;;20.60;99.90;;;;;;4933221;29;20197;-59
2023/05/08 12:15:54;;;;;;;0.57;0.57;;;20.60;99.90;;;;;;4929887;29;20206;-58
2023/05/08 12:18:22;;;;;;;0.50;0.50;;;20.70;99.90;;;;;;4931636;29;20206;-59
2023/05/08 12:20:53;;;;;;;0.40;0.40;;;20.70;99.90;;;;;;4930056;29;20300;-60
2023/05/08 12:23:20;;;;;;;1.70;0.60;;;20.60;99.90;;;;;;4934060;29;20214;-59
2023/05/08 12:25:52;;;;;;;1.70;0.43;;;20.70;99.90;;;;;;4934864;29;20201;-59
2023/05/08 12:28:19;;;;;;;0.40;0.40;;;20.50;99.90;;;;;;4934039;29;20221;-59
2023/05/08 12:30:46;;;;;;;0.60;0.60;;;20.30;99.90;;;;;;4934918;29;20285;-59
2023/05/08 12:33:14;;;;;;;0.63;0.63;;;20.50;99.90;;;;;;4934638;29;20202;-60
2023/05/08 12:35:41;;;;;;;0.60;0.50;;;20.40;99.90;;;;;;4933997;29;20219;-59
2023/05/08 12:38:09;;;;;;;0.73;0.67;;;20.50;99.90;;;;;;4920324;29;20202;-59
2023/05/08 12:40:42;;;;;;;0.67;0.67;;;20.30;99.90;;;;;;4915295;29;20243;-59
2023/05/08 12:43:11;;;;;;;0.80;0.80;;;20.40;99.90;;;;;;4933379;29;20202;-59
2023/05/08 12:45:39;;;;;;;1.93;0.80;;;20.50;99.90;;;;;;4923208;29;20239;-59
2023/05/08 12:48:08;;;;;;;0.50;0.50;;;20.40;99.90;;;;;;4924649;29;20202;-59
2023/05/08 12:50:36;;;;;;;0.90;0.70;;;20.50;99.90;;;;;;4934266;29;20280;-59
2023/05/08 12:53:04;;;;;;;0.60;0.60;;;20.30;99.90;;;;;;4928551;29;20203;-59
2023/05/08 12:55:32;;;;;;;0.90;0.90;;;20.50;99.90;;;;;;4915663;29;20246;-59
2023/05/08 12:58:01;;;;;;;0.90;0.83;;;20.50;99.90;;;;;;4931138;29;20577;-60
2023/05/08 13:00:36;;;;;;;0.50;0.50;;;20.60;99.90;;;;;;4934202;29;20226;-59
2023/05/08 13:03:04;;;;;;;1.80;0.90;;;20.70;99.90;;;;;;4933169;29;20594;-59